createdAt,value
2023-04-07T00:00:20.411Z,8.90
2023-04-07T00:03:10.134Z,8.90
2023-04-07T00:05:58.479Z,8.80
2023-04-07T00:08:46.642Z,8.80
2023-04-07T00:11:34.844Z,8.80
2023-04-07T00:14:22.991Z,8.90
2023-04-07T00:17:11.102Z,8.80
2023-04-07T00:20:00.706Z,8.80
2023-04-07T00:22:49.061Z,8.80
2023-04-07T00:25:37.462Z,8.70
2023-04-07T00:28:25.773Z,8.80
2023-04-07T00:31:14.172Z,8.70
2023-04-07T00:34:02.416Z,8.70
2023-04-07T00:36:52.489Z,8.60
2023-04-07T00:39:40.821Z,8.60
2023-04-07T00:42:29.071Z,8.60
2023-04-07T00:45:17.746Z,8.60
2023-04-07T00:48:06.529Z,8.70
2023-04-07T00:50:54.884Z,8.60
2023-04-07T00:53:44.402Z,8.60
2023-04-07T00:56:33.420Z,8.60
2023-04-07T00:59:22.035Z,8.60
2023-04-07T01:02:15.698Z,8.60
2023-04-07T01:05:11.472Z,8.60
2023-04-07T01:08:05.291Z,8.60
2023-04-07T01:11:03.791Z,8.60
2023-04-07T01:13:53.796Z,8.60
2023-04-07T01:16:46.710Z,8.60
2023-04-07T01:19:38.975Z,8.50
2023-04-07T01:22:34.502Z,8.50
2023-04-07T01:25:53.958Z,8.50
2023-04-07T01:29:12.362Z,8.50
2023-04-07T01:32:04.046Z,8.50
2023-04-07T01:34:53.550Z,8.40
2023-04-07T01:37:42.286Z,8.40
2023-04-07T01:40:31.527Z,8.50
2023-04-07T01:43:20.504Z,8.50
2023-04-07T01:46:08.820Z,8.50
2023-04-07T01:48:59.098Z,8.40
2023-04-07T01:51:50.327Z,8.40
2023-04-07T01:54:39.171Z,8.40
2023-04-07T01:57:27.908Z,8.40
2023-04-07T02:00:16.443Z,8.40
2023-04-07T02:03:12.471Z,8.40
2023-04-07T02:06:08.626Z,8.40
2023-04-07T02:09:01.377Z,8.40
2023-04-07T02:11:52.109Z,8.50
2023-04-07T02:14:41.149Z,8.40
2023-04-07T02:17:30.132Z,8.30
2023-04-07T02:20:19.563Z,8.30
2023-04-07T02:23:10.655Z,8.30
2023-04-07T02:25:58.906Z,8.30
2023-04-07T02:28:46.962Z,8.20
2023-04-07T02:31:35.153Z,8.20
2023-04-07T02:34:23.265Z,8.20
2023-04-07T02:37:11.513Z,8.20
2023-04-07T02:40:01.120Z,8.20
2023-04-07T02:42:49.366Z,8.10
2023-04-07T02:45:37.483Z,8.10
2023-04-07T02:48:25.659Z,8.10
2023-04-07T02:51:13.759Z,8.10
2023-04-07T02:54:01.868Z,8.00
2023-04-07T02:56:51.733Z,8.00
2023-04-07T02:59:39.802Z,8.00
2023-04-07T03:02:28.055Z,8.00
2023-04-07T03:05:16.345Z,7.90
2023-04-07T03:08:04.479Z,7.90
2023-04-07T03:10:52.550Z,8.00
2023-04-07T03:13:42.038Z,7.90
2023-04-07T03:16:30.232Z,7.90
2023-04-07T03:19:18.307Z,7.90
2023-04-07T03:22:06.482Z,7.90
2023-04-07T03:24:54.871Z,7.90
2023-04-07T03:27:42.978Z,7.90
2023-04-07T03:30:32.410Z,7.90
2023-04-07T03:33:20.981Z,7.90
2023-04-07T03:36:10.908Z,7.90
2023-04-07T03:38:59.234Z,7.80
2023-04-07T03:41:47.473Z,7.80
2023-04-07T03:44:35.919Z,7.80
2023-04-07T03:47:25.475Z,7.80
2023-04-07T03:50:13.606Z,7.80
2023-04-07T03:53:02.084Z,7.90
2023-04-07T03:55:50.759Z,7.80
2023-04-07T03:58:44.117Z,7.80
2023-04-07T04:01:34.505Z,7.70
2023-04-07T04:04:24.674Z,7.80
2023-04-07T04:07:12.929Z,7.80
2023-04-07T04:10:01.889Z,7.80
2023-04-07T04:12:50.659Z,7.80
2023-04-07T04:15:38.813Z,7.90
2023-04-07T04:18:27.031Z,7.90
2023-04-07T04:21:16.617Z,7.90
2023-04-07T04:24:05.114Z,7.90
2023-04-07T04:26:53.516Z,7.80
2023-04-07T04:29:41.555Z,7.90
2023-04-07T04:32:29.781Z,7.80
2023-04-07T04:35:18.887Z,7.80
2023-04-07T04:38:08.571Z,7.80
2023-04-07T04:40:57.090Z,7.80
2023-04-07T04:43:45.546Z,7.90
2023-04-07T04:46:33.729Z,7.90
2023-04-07T04:49:22.242Z,7.90
2023-04-07T04:52:10.512Z,7.80
2023-04-07T04:54:59.978Z,7.80
2023-04-07T04:57:48.157Z,7.80
2023-04-07T05:00:36.671Z,7.80
2023-04-07T05:03:26.445Z,7.80
2023-04-07T05:06:14.724Z,7.80
2023-04-07T05:09:02.997Z,7.80
2023-04-07T05:11:52.421Z,7.80
2023-04-07T05:14:40.575Z,7.80
2023-04-07T05:17:28.785Z,7.70
2023-04-07T05:20:17.556Z,7.60
2023-04-07T05:23:06.133Z,7.60
2023-04-07T05:25:54.493Z,7.60
2023-04-07T05:28:44.032Z,7.60
2023-04-07T05:31:32.257Z,7.60
2023-04-07T05:34:20.468Z,7.60
2023-04-07T05:37:08.738Z,7.60
2023-04-07T05:39:56.873Z,7.60
2023-04-07T05:42:45.056Z,7.60
2023-04-07T05:45:35.220Z,7.60
2023-04-07T05:48:23.461Z,7.60
2023-04-07T05:51:11.456Z,7.70
2023-04-07T05:54:03.125Z,7.70
2023-04-07T05:56:51.409Z,7.70
2023-04-07T05:59:39.557Z,7.70
2023-04-07T06:02:29.188Z,7.70
2023-04-07T06:05:18.154Z,7.70
2023-04-07T06:08:06.573Z,7.80
2023-04-07T06:10:54.854Z,7.70
2023-04-07T06:13:42.986Z,7.60
2023-04-07T06:16:31.295Z,7.70
2023-04-07T06:19:21.364Z,7.70
2023-04-07T06:22:09.598Z,7.70
2023-04-07T06:24:57.863Z,7.70
2023-04-07T06:27:46.288Z,7.80
2023-04-07T06:30:35.146Z,7.80
2023-04-07T06:33:25.587Z,7.80
2023-04-07T06:36:15.191Z,7.90
2023-04-07T06:39:03.342Z,7.80
2023-04-07T06:41:51.444Z,7.90
2023-04-07T06:44:39.462Z,8.00
2023-04-07T06:47:28.319Z,8.00
2023-04-07T06:50:20.718Z,8.00
2023-04-07T06:53:10.145Z,8.00
2023-04-07T06:56:05.501Z,8.00
2023-04-07T06:58:54.446Z,8.10
2023-04-07T07:01:43.841Z,8.00
2023-04-07T07:04:32.211Z,8.10
2023-04-07T07:07:20.744Z,8.10
2023-04-07T07:10:11.499Z,8.10
2023-04-07T07:12:59.686Z,8.10
2023-04-07T07:15:47.854Z,8.10
2023-04-07T07:18:36.939Z,8.10
2023-04-07T07:21:24.992Z,8.10
2023-04-07T07:24:13.193Z,8.20
2023-04-07T07:27:03.550Z,8.20
2023-04-07T07:29:51.618Z,8.30
2023-04-07T07:32:39.926Z,8.30
2023-04-07T07:35:28.354Z,8.30
2023-04-07T07:38:16.700Z,8.30
2023-04-07T07:41:04.776Z,8.30
2023-04-07T07:43:54.525Z,8.30
2023-04-07T07:46:42.684Z,8.30
2023-04-07T07:49:32.047Z,8.30
2023-04-07T07:52:20.758Z,8.40
2023-04-07T07:55:09.298Z,8.40
2023-04-07T07:57:57.606Z,8.30
2023-04-07T08:00:47.519Z,8.30
2023-04-07T08:03:36.023Z,8.40
2023-04-07T08:06:24.237Z,8.40
2023-04-07T08:09:12.396Z,8.30
2023-04-07T08:12:00.628Z,8.30
2023-04-07T08:14:50.018Z,8.30
2023-04-07T08:17:39.856Z,8.40
2023-04-07T08:20:28.608Z,8.40
2023-04-07T08:23:16.739Z,8.40
2023-04-07T08:26:04.990Z,8.40
2023-04-07T08:28:53.160Z,8.40
2023-04-07T08:31:41.523Z,8.40
2023-04-07T08:34:31.174Z,8.40
2023-04-07T08:37:19.540Z,8.40
2023-04-07T08:40:08.480Z,8.40
2023-04-07T08:42:58.979Z,8.40
2023-04-07T08:45:47.900Z,8.50
2023-04-07T08:48:39.071Z,8.40
2023-04-07T08:51:31.798Z,8.50
2023-04-07T08:54:22.246Z,8.50
2023-04-07T08:57:11.759Z,8.50
2023-04-07T09:00:05.435Z,8.50
2023-04-07T09:02:54.173Z,8.50
2023-04-07T09:05:42.616Z,8.60
2023-04-07T09:08:32.181Z,8.60
2023-04-07T09:11:20.509Z,8.70
2023-04-07T09:14:08.645Z,8.60
2023-04-07T09:16:57.166Z,8.70
2023-04-07T09:19:45.947Z,8.70
2023-04-07T09:22:39.935Z,8.70
2023-04-07T09:25:30.578Z,8.70
2023-04-07T09:28:18.726Z,8.80
2023-04-07T09:31:06.959Z,8.80
2023-04-07T09:33:55.705Z,8.80
2023-04-07T09:36:43.758Z,8.80
2023-04-07T09:39:32.014Z,8.90
2023-04-07T09:42:22.480Z,8.90
2023-04-07T09:45:13.135Z,8.90
2023-04-07T09:48:07.708Z,9.00
2023-04-07T09:51:07.124Z,9.00
2023-04-07T09:53:55.800Z,9.00
2023-04-07T09:56:43.958Z,9.00
2023-04-07T09:59:35.560Z,9.10
2023-04-07T10:02:24.211Z,9.10
2023-04-07T10:05:12.785Z,9.10
2023-04-07T10:08:02.377Z,9.20
2023-04-07T10:10:51.368Z,9.20
2023-04-07T10:13:41.473Z,9.10
2023-04-07T10:16:31.864Z,9.20
2023-04-07T10:19:20.836Z,9.10
2023-04-07T10:22:09.261Z,9.10
2023-04-07T10:25:00.306Z,9.10
2023-04-07T10:27:52.272Z,9.20
2023-04-07T10:30:41.402Z,9.10
2023-04-07T10:33:56.534Z,9.10
2023-04-07T10:37:14.233Z,9.20
2023-04-07T10:40:31.010Z,9.10
2023-04-07T10:43:39.628Z,9.10
2023-04-07T10:47:00.481Z,9.10
2023-04-07T10:50:19.550Z,9.10
2023-04-07T10:53:10.767Z,9.10
2023-04-07T10:55:59.903Z,9.10
2023-04-07T10:58:48.346Z,9.10
2023-04-07T11:01:36.571Z,9.20
2023-04-07T11:04:24.916Z,9.20
2023-04-07T11:07:16.368Z,9.30
2023-04-07T11:10:11.657Z,9.30
2023-04-07T11:13:01.590Z,9.30
2023-04-07T11:15:51.918Z,9.30
2023-04-07T11:18:41.554Z,9.30
2023-04-07T11:21:30.525Z,9.40
2023-04-07T11:27:15.801Z,9.40
2023-04-07T11:30:10.149Z,9.60
2023-04-07T11:32:58.884Z,9.70
2023-04-07T11:35:52.293Z,9.80
2023-04-07T11:38:40.796Z,9.80
2023-04-07T11:41:32.780Z,9.90
2023-04-07T11:44:22.272Z,9.90
2023-04-07T11:47:10.346Z,9.90
2023-04-07T11:49:58.552Z,10.00
2023-04-07T11:52:48.562Z,10.00
2023-04-07T11:55:36.968Z,10.00
2023-04-07T11:58:25.039Z,10.00
2023-04-07T12:01:14.831Z,10.00
2023-04-07T12:04:05.058Z,10.10
2023-04-07T12:06:53.388Z,10.10
2023-04-07T12:09:41.439Z,10.20
2023-04-07T12:12:33.457Z,10.20
2023-04-07T12:15:22.997Z,10.30
2023-04-07T12:18:18.258Z,10.40
2023-04-07T12:21:06.689Z,10.50
2023-04-07T12:23:55.006Z,10.50
2023-04-07T12:26:43.194Z,10.60
2023-04-07T12:29:31.274Z,10.80
2023-04-07T12:32:19.963Z,10.90
2023-04-07T12:35:09.894Z,11.00
2023-04-07T12:37:58.184Z,11.10
2023-04-07T12:40:46.750Z,11.20
2023-04-07T12:43:35.669Z,11.30
2023-04-07T12:46:24.096Z,11.30
2023-04-07T12:49:12.670Z,11.50
2023-04-07T12:52:02.111Z,11.50
2023-04-07T12:54:50.461Z,11.50
2023-04-07T12:57:39.091Z,11.40
2023-04-07T13:00:27.490Z,11.50
2023-04-07T13:03:15.882Z,11.50
2023-04-07T13:06:05.291Z,11.50
2023-04-07T13:08:55.437Z,11.50
2023-04-07T13:11:43.846Z,11.50
2023-04-07T13:14:32.220Z,11.60
2023-04-07T13:17:20.533Z,11.70
2023-04-07T13:20:09.606Z,11.80
2023-04-07T13:23:07.671Z,11.80
2023-04-07T13:25:59.527Z,11.90
2023-04-07T13:28:47.995Z,12.10
2023-04-07T13:31:36.456Z,12.10
2023-04-07T13:34:24.570Z,12.00
2023-04-07T13:37:12.829Z,12.00
2023-04-07T13:40:01.368Z,12.00
2023-04-07T13:42:51.097Z,12.00
2023-04-07T13:45:39.313Z,11.90
2023-04-07T13:48:27.746Z,11.90
2023-04-07T13:51:16.428Z,12.00
2023-04-07T13:54:04.757Z,11.90
2023-04-07T13:56:53.074Z,11.70
2023-04-07T13:59:42.730Z,11.70
2023-04-07T14:02:32.443Z,11.70
2023-04-07T14:05:20.596Z,11.70
2023-04-07T14:08:08.698Z,11.70
2023-04-07T14:10:57.086Z,11.80
2023-04-07T14:13:45.414Z,11.80
2023-04-07T14:16:34.910Z,11.80
2023-04-07T14:19:24.176Z,11.70
2023-04-07T14:22:12.261Z,11.60
2023-04-07T14:25:00.641Z,11.70
2023-04-07T14:27:49.128Z,11.80
2023-04-07T14:30:39.052Z,11.70
2023-04-07T14:33:28.630Z,11.70
2023-04-07T14:36:17.776Z,11.80
2023-04-07T14:39:06.132Z,11.70
2023-04-07T14:41:55.176Z,11.80
2023-04-07T14:44:43.836Z,11.90
2023-04-07T14:47:32.128Z,11.90
2023-04-07T14:50:22.040Z,11.90
2023-04-07T14:53:10.345Z,11.80
2023-04-07T14:55:58.512Z,11.70
2023-04-07T14:58:46.884Z,11.60
2023-04-07T15:01:35.309Z,11.60
2023-04-07T15:04:23.648Z,11.60
2023-04-07T15:07:13.528Z,11.50
2023-04-07T15:10:02.045Z,11.60
2023-04-07T15:12:50.555Z,11.60
2023-04-07T15:15:38.705Z,11.60
2023-04-07T15:18:26.947Z,11.50
2023-04-07T15:21:16.892Z,11.50
2023-04-07T15:24:06.723Z,11.50
2023-04-07T15:26:54.928Z,11.50
2023-04-07T15:29:43.301Z,11.60
2023-04-07T15:32:32.651Z,11.60
2023-04-07T15:35:21.242Z,11.60
2023-04-07T15:38:09.493Z,11.50
2023-04-07T15:40:59.360Z,11.40
2023-04-07T15:43:48.074Z,11.40
2023-04-07T15:46:37.006Z,11.40
2023-04-07T15:49:26.220Z,11.40
2023-04-07T15:52:15.628Z,11.30
2023-04-07T15:55:04.002Z,11.20
2023-04-07T15:57:53.672Z,11.20
2023-04-07T16:00:42.306Z,11.20
2023-04-07T16:03:32.344Z,11.30
2023-04-07T16:06:20.957Z,11.30
2023-04-07T16:09:09.759Z,11.30
2023-04-07T16:11:58.171Z,11.20
2023-04-07T16:14:47.915Z,11.20
2023-04-07T16:17:37.587Z,11.10
2023-04-07T16:20:26.155Z,11.10
2023-04-07T16:23:14.634Z,11.20
2023-04-07T16:26:03.026Z,11.10
2023-04-07T16:28:51.076Z,11.10
2023-04-07T16:31:41.244Z,11.10
2023-04-07T16:34:29.354Z,11.00
2023-04-07T16:37:17.538Z,11.00
2023-04-07T16:40:06.740Z,10.90
2023-04-07T16:42:54.886Z,10.90
2023-04-07T16:45:43.039Z,10.80
2023-04-07T16:48:32.668Z,10.80
2023-04-07T16:51:21.415Z,10.70
2023-04-07T16:54:09.576Z,10.70
2023-04-07T16:56:57.975Z,10.60
2023-04-07T16:59:46.505Z,10.60
2023-04-07T17:02:35.277Z,10.50
2023-04-07T17:05:25.085Z,10.50
2023-04-07T17:08:13.314Z,10.50
2023-04-07T17:11:01.564Z,10.40
2023-04-07T17:13:50.036Z,10.40
2023-04-07T17:16:38.456Z,10.40
2023-04-07T17:19:27.166Z,10.30
2023-04-07T17:22:16.798Z,10.30
2023-04-07T17:25:06.847Z,10.20
2023-04-07T17:27:55.306Z,10.20
2023-04-07T17:30:43.538Z,10.20
2023-04-07T17:33:32.454Z,10.20
2023-04-07T17:36:20.676Z,10.10
2023-04-07T17:39:10.401Z,10.10
2023-04-07T17:41:58.635Z,10.10
2023-04-07T17:44:47.189Z,10.00
2023-04-07T17:47:36.212Z,10.00
2023-04-07T17:50:24.526Z,10.00
2023-04-07T17:53:12.894Z,10.00
2023-04-07T17:56:02.976Z,10.00
2023-04-07T17:58:51.468Z,9.90
2023-04-07T18:01:39.923Z,9.90
2023-04-07T18:04:28.855Z,9.90
2023-04-07T18:07:17.908Z,9.90
2023-04-07T18:10:07.171Z,9.90
2023-04-07T18:12:57.098Z,9.90
2023-04-07T18:15:45.425Z,9.90
2023-04-07T18:18:33.523Z,9.80
2023-04-07T18:21:21.773Z,9.80
2023-04-07T18:24:10.148Z,9.80
2023-04-07T18:26:58.327Z,9.80
2023-04-07T18:29:47.760Z,9.70
2023-04-07T18:32:36.167Z,9.70
2023-04-07T18:35:25.531Z,9.70
2023-04-07T18:38:13.826Z,9.60
2023-04-07T18:41:02.033Z,9.60
2023-04-07T18:43:50.354Z,9.60
2023-04-07T18:46:40.344Z,9.60
2023-04-07T18:49:29.148Z,9.60
2023-04-07T18:52:17.413Z,9.60
2023-04-07T18:55:06.610Z,9.60
2023-04-07T18:57:55.100Z,9.50
2023-04-07T19:00:43.946Z,9.40
2023-04-07T19:03:33.594Z,9.40
2023-04-07T19:06:21.804Z,9.40
2023-04-07T19:09:10.347Z,9.40
2023-04-07T19:11:58.672Z,9.50
2023-04-07T19:14:47.081Z,9.50
2023-04-07T19:17:36.170Z,9.50
2023-04-07T19:20:25.748Z,9.40
2023-04-07T19:23:13.900Z,9.40
2023-04-07T19:26:02.129Z,9.40
2023-04-07T19:28:50.482Z,9.40
2023-04-07T19:31:39.133Z,9.30
2023-04-07T19:34:27.389Z,9.30
2023-04-07T19:37:18.080Z,9.30
2023-04-07T19:40:07.451Z,9.30
2023-04-07T19:42:57.216Z,9.20
2023-04-07T19:45:46.776Z,9.20
2023-04-07T19:48:34.869Z,9.20
2023-04-07T19:51:22.931Z,9.10
2023-04-07T19:54:12.505Z,9.10
2023-04-07T19:57:01.728Z,9.00
2023-04-07T19:59:49.744Z,8.90
2023-04-07T20:02:38.177Z,8.90
2023-04-07T20:05:26.363Z,8.90
2023-04-07T20:08:14.565Z,8.90
2023-04-07T20:11:04.002Z,8.80
2023-04-07T20:13:52.150Z,8.80
2023-04-07T20:16:40.266Z,8.70
2023-04-07T20:19:28.889Z,8.70
2023-04-07T20:22:16.908Z,8.70
2023-04-07T20:25:05.605Z,8.60
2023-04-07T20:27:55.055Z,8.60
2023-04-07T20:30:43.202Z,8.60
2023-04-07T20:33:31.468Z,8.60
2023-04-07T20:36:19.677Z,8.50
2023-04-07T20:39:07.820Z,8.50
2023-04-07T20:41:57.276Z,8.40
2023-04-07T20:44:49.236Z,8.40
2023-04-07T20:47:37.338Z,8.30
2023-04-07T20:50:25.800Z,8.30
2023-04-07T20:53:13.860Z,8.30
2023-04-07T20:56:02.924Z,8.20
2023-04-07T20:58:51.417Z,8.20
2023-04-07T21:01:41.103Z,8.10
2023-04-07T21:04:29.295Z,8.10
2023-04-07T21:07:17.391Z,8.10
2023-04-07T21:10:06.299Z,8.10
2023-04-07T21:12:54.615Z,8.00
2023-04-07T21:15:43.902Z,8.00
2023-04-07T21:18:34.654Z,8.00
2023-04-07T21:21:22.737Z,8.00
2023-04-07T21:24:10.820Z,7.90
2023-04-07T21:26:59.178Z,7.90
2023-04-07T21:29:47.294Z,7.90
2023-04-07T21:32:36.641Z,7.90
2023-04-07T21:35:27.855Z,7.80
2023-04-07T21:38:16.199Z,7.80
2023-04-07T21:41:04.209Z,7.80
2023-04-07T21:43:52.331Z,7.80
2023-04-07T21:46:41.091Z,7.80
2023-04-07T21:49:29.317Z,7.80
2023-04-07T21:52:18.925Z,7.70
2023-04-07T21:55:08.611Z,7.70
2023-04-07T21:57:57.497Z,7.70
2023-04-07T22:00:48.806Z,7.60
2023-04-07T22:03:36.924Z,7.70
2023-04-07T22:06:25.070Z,7.60
2023-04-07T22:09:14.779Z,7.60
2023-04-07T22:12:02.872Z,7.60
2023-04-07T22:14:51.220Z,7.60
2023-04-07T22:17:40.141Z,7.50
2023-04-07T22:20:28.422Z,7.50
2023-04-07T22:23:16.516Z,7.50
2023-04-07T22:26:05.942Z,7.50
2023-04-07T22:28:54.042Z,7.40
2023-04-07T22:31:42.128Z,7.40
2023-04-07T22:34:30.236Z,7.40
2023-04-07T22:37:18.429Z,7.30
2023-04-07T22:40:07.649Z,7.20
2023-04-07T22:42:57.140Z,7.20
2023-04-07T22:45:45.356Z,7.20
2023-04-07T22:48:33.426Z,7.10
2023-04-07T22:51:22.066Z,7.10
2023-04-07T22:54:10.277Z,7.00
2023-04-07T22:56:58.332Z,7.00
2023-04-07T22:59:47.714Z,6.90
2023-04-07T23:02:36.675Z,6.90
2023-04-07T23:05:25.160Z,6.90
2023-04-07T23:08:13.408Z,6.90
2023-04-07T23:11:01.412Z,6.90
2023-04-07T23:13:49.533Z,6.80
2023-04-07T23:16:39.299Z,6.80
2023-04-07T23:19:27.677Z,6.80
2023-04-07T23:22:15.768Z,6.80
2023-04-07T23:25:04.938Z,6.70
2023-04-07T23:27:53.014Z,6.70
2023-04-07T23:30:41.346Z,6.60
2023-04-07T23:33:31.601Z,6.60
2023-04-07T23:36:19.754Z,6.60
2023-04-07T23:39:07.850Z,6.60
2023-04-07T23:41:56.204Z,6.50
2023-04-07T23:44:44.427Z,6.50
2023-04-07T23:47:32.509Z,6.50
2023-04-07T23:50:22.126Z,6.40
2023-04-07T23:53:10.371Z,6.30
2023-04-07T23:55:58.453Z,6.30
2023-04-07T23:58:46.706Z,6.20
